createdAt,value
2018-11-04T00:01:17.286Z,94.10
2018-11-04T00:03:45.553Z,94.10
2018-11-04T00:06:13.774Z,94.20
2018-11-04T00:08:42.034Z,94.20
2018-11-04T00:11:10.214Z,94.30
2018-11-04T00:13:38.451Z,94.40
2018-11-04T00:16:06.650Z,94.40
2018-11-04T00:18:34.925Z,94.40
2018-11-04T00:21:03.162Z,94.50
2018-11-04T00:23:31.391Z,94.50
2018-11-04T00:25:59.633Z,94.60
2018-11-04T00:28:27.879Z,94.60
2018-11-04T00:30:56.153Z,94.70
2018-11-04T00:33:24.377Z,94.70
2018-11-04T00:35:52.595Z,94.70
2018-11-04T00:38:20.826Z,94.80
2018-11-04T00:40:49.048Z,94.90
2018-11-04T00:43:17.260Z,94.90
2018-11-04T00:45:45.504Z,94.90
2018-11-04T00:48:13.758Z,95.10
2018-11-04T00:50:41.963Z,95.10
2018-11-04T00:53:10.171Z,95.10
2018-11-04T00:55:39.256Z,95.20
2018-11-04T00:58:07.498Z,95.30
2018-11-04T01:00:35.702Z,95.40
2018-11-04T01:03:04.004Z,95.50
2018-11-04T01:05:32.219Z,95.40
2018-11-04T01:08:00.430Z,95.40
2018-11-04T01:10:28.656Z,95.40
2018-11-04T01:12:57.211Z,95.40
2018-11-04T01:15:25.447Z,95.40
2018-11-04T01:17:53.655Z,95.30
2018-11-04T01:20:21.897Z,95.30
2018-11-04T01:22:50.135Z,95.30
2018-11-04T01:25:18.355Z,95.40
2018-11-04T01:27:46.567Z,95.40
2018-11-04T01:30:15.433Z,95.50
2018-11-04T01:32:44.124Z,95.60
2018-11-04T01:35:12.371Z,95.70
2018-11-04T01:37:40.587Z,95.60
2018-11-04T01:40:09.684Z,95.70
2018-11-04T01:42:37.982Z,95.70
2018-11-04T01:45:07.811Z,95.60
2018-11-04T01:47:36.332Z,95.60
2018-11-04T01:50:05.388Z,95.60
2018-11-04T01:52:33.671Z,95.40
2018-11-04T01:55:01.919Z,95.50
2018-11-04T01:57:30.142Z,95.30
2018-11-04T01:59:58.412Z,95.50
2018-11-04T02:02:26.647Z,95.60
2018-11-04T02:04:54.867Z,95.70
2018-11-04T02:07:23.103Z,95.80
2018-11-04T02:09:51.319Z,95.90
2018-11-04T02:12:19.553Z,96.00
2018-11-04T02:14:47.797Z,96.00
2018-11-04T02:17:16.007Z,96.40
2018-11-04T02:19:44.203Z,96.10
2018-11-04T02:22:12.410Z,96.10
2018-11-04T02:24:40.618Z,96.40
2018-11-04T02:27:08.843Z,96.10
2018-11-04T02:29:37.066Z,96.10
2018-11-04T02:32:06.009Z,96.10
2018-11-04T02:34:34.225Z,96.10
2018-11-04T02:37:02.432Z,96.00
2018-11-04T02:39:30.671Z,95.90
2018-11-04T02:41:58.936Z,95.80
2018-11-04T02:44:27.180Z,95.70
2018-11-04T02:46:55.509Z,95.70
2018-11-04T02:49:23.618Z,95.70
2018-11-04T02:51:51.866Z,95.80
2018-11-04T02:54:20.084Z,95.70
2018-11-04T02:56:48.362Z,95.70
2018-11-04T02:59:16.610Z,95.70
2018-11-04T03:01:44.883Z,95.60
2018-11-04T03:04:13.059Z,95.70
2018-11-04T03:06:41.295Z,95.60
2018-11-04T03:09:10.257Z,95.60
2018-11-04T03:11:38.507Z,95.50
2018-11-04T03:14:06.720Z,95.50
2018-11-04T03:16:34.946Z,95.40
2018-11-04T03:19:03.217Z,95.30
2018-11-04T03:21:31.480Z,95.20
2018-11-04T03:23:59.687Z,95.20
2018-11-04T03:26:27.874Z,95.10
2018-11-04T03:28:56.271Z,95.00
2018-11-04T03:31:24.479Z,95.10
2018-11-04T03:33:52.701Z,95.10
2018-11-04T03:36:20.927Z,95.10
2018-11-04T03:38:49.159Z,95.30
2018-11-04T03:41:17.379Z,95.20
2018-11-04T03:43:45.594Z,95.30
2018-11-04T03:46:13.802Z,95.20
2018-11-04T03:48:42.099Z,95.30
2018-11-04T03:51:10.299Z,95.30
2018-11-04T03:53:38.628Z,95.30
2018-11-04T03:56:06.829Z,95.30
2018-11-04T03:58:35.111Z,95.30
2018-11-04T04:01:03.311Z,95.30
2018-11-04T04:03:31.533Z,95.30
2018-11-04T04:05:59.753Z,95.30
2018-11-04T04:08:27.983Z,95.30
2018-11-04T04:10:56.187Z,95.30
2018-11-04T04:13:24.409Z,95.30
2018-11-04T04:15:52.645Z,95.20
2018-11-04T04:18:20.871Z,95.30
2018-11-04T04:20:53.343Z,95.20
2018-11-04T04:23:21.574Z,95.30
2018-11-04T04:25:49.799Z,95.40
2018-11-04T04:28:18.036Z,95.50
2018-11-04T04:30:46.302Z,95.50
2018-11-04T04:33:14.556Z,95.50
2018-11-04T04:35:49.316Z,95.60
2018-11-04T04:38:17.575Z,95.60
2018-11-04T04:40:45.811Z,95.70
2018-11-04T04:43:14.033Z,95.70
2018-11-04T04:45:42.292Z,95.70
2018-11-04T04:48:10.572Z,95.60
2018-11-04T04:50:38.789Z,95.70
2018-11-04T04:53:07.200Z,95.70
2018-11-04T04:55:35.399Z,95.60
2018-11-04T04:58:03.627Z,95.70
2018-11-04T05:00:31.851Z,95.60
2018-11-04T05:03:00.113Z,95.60
2018-11-04T05:05:28.340Z,95.60
2018-11-04T05:07:56.616Z,95.70
2018-11-04T05:10:24.865Z,95.70
2018-11-04T05:12:53.291Z,95.70
2018-11-04T05:15:21.503Z,95.70
2018-11-04T05:17:49.779Z,95.60
2018-11-04T05:20:17.995Z,95.70
2018-11-04T05:22:46.272Z,95.70
2018-11-04T05:25:14.492Z,95.80
2018-11-04T05:27:42.743Z,95.70
2018-11-04T05:30:11.939Z,95.70
2018-11-04T05:32:40.246Z,95.80
2018-11-04T05:35:08.553Z,95.90
2018-11-04T05:37:37.490Z,95.90
2018-11-04T05:40:06.251Z,95.90
2018-11-04T05:42:34.506Z,95.80
2018-11-04T05:45:03.054Z,95.80
2018-11-04T05:47:31.271Z,95.70
2018-11-04T05:49:59.495Z,95.70
2018-11-04T05:52:27.728Z,95.70
2018-11-04T05:54:55.939Z,95.80
2018-11-04T05:57:24.192Z,95.70
2018-11-04T05:59:52.424Z,95.70
2018-11-04T06:02:20.665Z,95.70
2018-11-04T06:04:48.947Z,95.70
2018-11-04T06:07:17.191Z,95.60
2018-11-04T06:09:45.436Z,95.70
2018-11-04T06:12:13.664Z,95.70
2018-11-04T06:14:41.913Z,95.60
2018-11-04T06:17:10.144Z,95.60
2018-11-04T06:19:38.480Z,95.70
2018-11-04T06:22:06.690Z,95.70
2018-11-04T06:24:34.903Z,95.90
2018-11-04T06:27:03.132Z,95.90
2018-11-04T06:29:31.353Z,95.90
2018-11-04T06:31:59.586Z,95.90
2018-11-04T06:34:27.859Z,96.00
2018-11-04T06:36:56.071Z,95.90
2018-11-04T06:39:24.290Z,95.90
2018-11-04T06:41:52.523Z,95.90
2018-11-04T06:44:20.737Z,95.90
2018-11-04T06:46:48.999Z,95.90
2018-11-04T06:49:17.251Z,96.00
2018-11-04T06:51:45.530Z,95.90
2018-11-04T06:54:13.823Z,96.00
2018-11-04T06:56:42.091Z,95.90
2018-11-04T06:59:10.350Z,96.00
2018-11-04T07:01:38.642Z,96.00
2018-11-04T07:04:34.315Z,96.00
2018-11-04T07:07:02.552Z,96.00
2018-11-04T07:09:30.822Z,96.00
2018-11-04T07:11:59.039Z,96.00
2018-11-04T07:14:27.281Z,96.00
2018-11-04T07:16:55.496Z,96.10
2018-11-04T07:19:26.956Z,96.00
2018-11-04T07:21:55.240Z,96.00
2018-11-04T07:24:23.463Z,96.00
2018-11-04T07:26:51.765Z,95.90
2018-11-04T07:29:19.981Z,95.90
2018-11-04T07:31:48.221Z,95.90
2018-11-04T07:34:16.530Z,95.90
2018-11-04T07:36:44.757Z,95.80
2018-11-04T07:39:13.752Z,95.80
2018-11-04T07:41:42.094Z,95.90
2018-11-04T07:44:10.441Z,95.80
2018-11-04T07:46:38.682Z,95.90
2018-11-04T07:49:06.908Z,95.80
2018-11-04T07:51:35.236Z,95.80
2018-11-04T07:54:03.401Z,95.80
2018-11-04T07:56:31.608Z,95.70
2018-11-04T07:58:59.896Z,95.80
2018-11-04T08:01:28.128Z,95.70
2018-11-04T08:03:56.495Z,95.70
2018-11-04T08:06:24.663Z,95.70
2018-11-04T08:08:52.912Z,95.70
2018-11-04T08:11:21.161Z,95.70
2018-11-04T08:13:49.381Z,95.70
2018-11-04T08:16:17.655Z,95.60
2018-11-04T08:18:46.047Z,95.60
2018-11-04T08:21:14.341Z,95.60
2018-11-04T08:23:42.513Z,95.60
2018-11-04T08:26:10.759Z,95.50
2018-11-04T08:28:39.017Z,95.40
2018-11-04T08:31:07.263Z,95.80
2018-11-04T08:33:35.539Z,95.50
2018-11-04T08:36:03.770Z,95.50
2018-11-04T08:38:32.015Z,95.60
2018-11-04T08:41:00.272Z,95.70
2018-11-04T08:43:28.504Z,95.60
2018-11-04T08:45:56.853Z,95.60
2018-11-04T08:48:25.054Z,95.60
2018-11-04T08:50:53.308Z,95.60
2018-11-04T08:53:21.525Z,95.50
2018-11-04T08:55:49.824Z,95.40
2018-11-04T08:58:18.281Z,95.50
2018-11-04T09:00:46.515Z,95.80
2018-11-04T09:03:14.776Z,95.30
2018-11-04T09:05:43.060Z,95.20
2018-11-04T09:08:11.271Z,95.10
2018-11-04T09:10:39.531Z,95.10
2018-11-04T09:13:07.829Z,95.00
2018-11-04T09:15:36.097Z,94.70
2018-11-04T09:18:04.351Z,94.80
2018-11-04T09:20:32.624Z,94.60
2018-11-04T09:23:00.888Z,94.50
2018-11-04T09:25:29.142Z,94.40
2018-11-04T09:27:57.381Z,94.30
2018-11-04T09:30:25.658Z,94.30
2018-11-04T09:32:54.000Z,94.30
2018-11-04T09:35:22.329Z,94.20
2018-11-04T09:37:50.520Z,94.20
2018-11-04T09:40:18.832Z,94.20
2018-11-04T09:42:47.094Z,94.20
2018-11-04T09:45:15.369Z,94.20
2018-11-04T09:47:44.464Z,94.10
2018-11-04T09:50:12.945Z,94.20
2018-11-04T09:52:41.227Z,94.20
2018-11-04T09:55:10.679Z,94.20
2018-11-04T09:57:38.953Z,94.20
2018-11-04T10:00:08.663Z,94.10
2018-11-04T10:02:37.161Z,94.20
2018-11-04T10:05:06.394Z,94.20
2018-11-04T10:07:34.675Z,94.00
2018-11-04T10:10:03.014Z,94.10
2018-11-04T10:12:31.283Z,93.90
2018-11-04T10:14:59.550Z,93.90
2018-11-04T10:17:27.885Z,93.70
2018-11-04T10:19:56.560Z,93.80
2018-11-04T10:22:24.481Z,94.10
2018-11-04T10:24:52.721Z,93.70
2018-11-04T10:27:20.991Z,93.60
2018-11-04T10:29:49.224Z,93.70
2018-11-04T10:32:17.469Z,93.60
2018-11-04T10:34:45.704Z,93.50
2018-11-04T10:37:13.968Z,93.50
2018-11-04T10:39:42.194Z,93.40
2018-11-04T10:42:10.512Z,93.40
2018-11-04T10:44:38.730Z,93.50
2018-11-04T10:47:06.971Z,93.40
2018-11-04T10:49:35.331Z,93.30
2018-11-04T10:52:06.708Z,93.30
2018-11-04T10:54:34.926Z,93.30
2018-11-04T10:57:03.176Z,93.30
2018-11-04T10:59:31.389Z,93.30
2018-11-04T11:01:59.693Z,93.20
2018-11-04T11:04:28.033Z,93.10
2018-11-04T11:06:56.248Z,93.00
2018-11-04T11:09:24.514Z,93.00
2018-11-04T11:11:52.827Z,93.10
2018-11-04T11:14:21.278Z,93.10
2018-11-04T11:16:49.540Z,93.10
2018-11-04T11:19:17.768Z,93.10
2018-11-04T11:21:49.036Z,93.00
2018-11-04T11:24:17.262Z,92.90
2018-11-04T11:26:45.675Z,92.80
2018-11-04T11:29:14.058Z,92.70
2018-11-04T11:31:42.296Z,92.50
2018-11-04T11:34:10.561Z,92.50
2018-11-04T11:36:38.836Z,92.60
2018-11-04T11:39:09.881Z,92.60
2018-11-04T11:41:38.208Z,92.50
2018-11-04T11:44:06.452Z,92.40
2018-11-04T11:46:34.683Z,92.10
2018-11-04T11:49:02.982Z,92.10
2018-11-04T11:51:31.274Z,92.20
2018-11-04T11:53:59.523Z,92.20
2018-11-04T11:56:27.767Z,92.30
2018-11-04T11:58:56.033Z,92.30
2018-11-04T12:01:24.316Z,92.50
2018-11-04T12:03:52.544Z,92.30
2018-11-04T12:06:20.801Z,92.40
2018-11-04T12:08:49.133Z,92.50
2018-11-04T12:11:17.376Z,92.40
2018-11-04T12:13:45.694Z,92.30
2018-11-04T12:16:14.025Z,92.20
2018-11-04T12:18:42.360Z,92.10
2018-11-04T12:21:10.647Z,92.30
2018-11-04T12:23:38.880Z,92.30
2018-11-04T12:26:07.175Z,92.20
2018-11-04T12:28:35.405Z,92.20
2018-11-04T12:31:03.650Z,92.10
2018-11-04T12:33:31.896Z,92.10
2018-11-04T12:36:00.155Z,92.10
2018-11-04T12:38:29.017Z,92.20
2018-11-04T12:40:57.276Z,92.30
2018-11-04T12:43:25.591Z,92.20
2018-11-04T12:45:53.890Z,92.20
2018-11-04T12:48:22.083Z,92.10
2018-11-04T12:50:50.298Z,92.50
2018-11-04T12:53:18.568Z,92.40
2018-11-04T12:55:46.785Z,92.50
2018-11-04T12:58:15.005Z,92.30
2018-11-04T13:00:43.239Z,92.20
2018-11-04T13:03:11.507Z,92.20
2018-11-04T13:05:39.727Z,92.40
2018-11-04T13:08:07.931Z,92.40
2018-11-04T13:10:36.270Z,92.30
2018-11-04T13:13:04.768Z,92.20
2018-11-04T13:15:33.012Z,92.20
2018-11-04T13:18:01.289Z,92.30
2018-11-04T13:20:29.563Z,92.20
2018-11-04T13:22:57.800Z,92.20
2018-11-04T13:25:26.091Z,92.20
2018-11-04T13:27:54.499Z,92.20
2018-11-04T13:30:22.707Z,92.30
2018-11-04T13:32:50.946Z,92.10
2018-11-04T13:35:19.230Z,92.20
2018-11-04T13:37:47.457Z,92.60
2018-11-04T13:40:15.724Z,92.20
2018-11-04T13:42:43.959Z,92.10
2018-11-04T13:45:12.454Z,92.20
2018-11-04T13:47:40.692Z,92.20
2018-11-04T13:50:10.642Z,92.20
2018-11-04T13:52:38.889Z,92.30
2018-11-04T13:55:07.435Z,92.40
2018-11-04T13:57:35.700Z,92.50
2018-11-04T14:00:03.967Z,92.60
2018-11-04T14:02:32.209Z,92.80
2018-11-04T14:05:00.452Z,92.90
2018-11-04T14:07:28.672Z,93.00
2018-11-04T14:09:56.965Z,93.20
2018-11-04T14:12:25.270Z,93.30
2018-11-04T14:14:53.467Z,93.30
2018-11-04T14:17:21.724Z,93.30
2018-11-04T14:19:49.991Z,93.40
2018-11-04T14:22:18.207Z,93.50
2018-11-04T14:24:46.532Z,93.60
2018-11-04T14:27:14.755Z,93.70
2018-11-04T14:29:43.019Z,93.70
2018-11-04T14:32:11.261Z,93.60
2018-11-04T14:34:39.502Z,93.50
2018-11-04T14:37:07.759Z,93.50
2018-11-04T14:39:35.986Z,93.40
2018-11-04T14:42:04.234Z,93.30
2018-11-04T14:44:32.470Z,93.20
2018-11-04T14:47:00.756Z,93.40
2018-11-04T14:49:29.044Z,93.40
2018-11-04T14:51:57.263Z,93.50
2018-11-04T14:54:25.499Z,93.70
2018-11-04T14:56:53.743Z,93.10
2018-11-04T14:59:21.987Z,93.20
2018-11-04T15:01:50.329Z,93.20
2018-11-04T15:04:18.491Z,93.30
2018-11-04T15:06:46.739Z,93.50
2018-11-04T15:09:15.003Z,93.30
2018-11-04T15:11:43.681Z,93.30
2018-11-04T15:14:12.215Z,93.50
2018-11-04T15:16:40.722Z,93.20
2018-11-04T15:19:09.363Z,93.40
2018-11-04T15:21:37.744Z,93.40
2018-11-04T15:24:06.300Z,93.80
2018-11-04T15:26:34.896Z,93.50
2018-11-04T15:29:03.429Z,93.50
2018-11-04T15:31:32.291Z,93.50
2018-11-04T15:34:00.897Z,93.50
2018-11-04T15:36:29.444Z,93.60
2018-11-04T15:38:58.129Z,93.70
2018-11-04T15:41:26.558Z,94.00
2018-11-04T15:43:55.062Z,94.20
2018-11-04T15:46:24.519Z,94.20
2018-11-04T15:48:52.974Z,94.30
2018-11-04T15:51:21.805Z,94.20
2018-11-04T15:53:50.550Z,94.30
2018-11-04T15:56:19.193Z,94.40
2018-11-04T15:58:47.757Z,94.50
2018-11-04T16:01:16.227Z,94.60
2018-11-04T16:03:44.733Z,94.70
2018-11-04T16:06:13.187Z,94.70
2018-11-04T16:08:41.726Z,94.70
2018-11-04T16:11:10.365Z,94.80
2018-11-04T16:13:38.579Z,94.90
2018-11-04T16:16:06.888Z,95.00
2018-11-04T16:18:35.583Z,95.10
2018-11-04T16:21:03.974Z,95.20
2018-11-04T16:23:32.468Z,95.30
2018-11-04T16:26:01.166Z,95.30
2018-11-04T16:28:30.660Z,95.30
2018-11-04T16:30:59.408Z,95.30
2018-11-04T16:33:28.015Z,95.40
2018-11-04T16:35:57.189Z,95.40
2018-11-04T16:38:25.501Z,95.40
2018-11-04T16:40:53.857Z,95.50
2018-11-04T16:43:22.175Z,95.50
2018-11-04T16:45:50.371Z,95.50
2018-11-04T16:48:18.590Z,95.50
2018-11-04T16:50:46.831Z,95.50
2018-11-04T16:53:15.151Z,95.60
2018-11-04T16:55:43.424Z,95.50
2018-11-04T16:58:11.684Z,95.50
2018-11-04T17:00:40.015Z,95.50
2018-11-04T17:03:08.255Z,95.50
2018-11-04T17:05:36.649Z,95.60
2018-11-04T17:08:04.811Z,95.70
2018-11-04T17:10:33.090Z,95.70
2018-11-04T17:13:01.365Z,95.80
2018-11-04T17:15:29.599Z,95.90
2018-11-04T17:17:57.964Z,95.90
2018-11-04T17:20:26.282Z,96.00
2018-11-04T17:22:54.578Z,96.10
2018-11-04T17:25:22.786Z,96.10
2018-11-04T17:27:51.033Z,96.10
2018-11-04T17:30:19.513Z,96.20
2018-11-04T17:32:48.202Z,96.20
2018-11-04T17:35:17.141Z,96.20
2018-11-04T17:37:45.695Z,96.30
2018-11-04T17:40:14.691Z,96.30
2018-11-04T17:42:43.054Z,96.40
2018-11-04T17:45:12.659Z,96.50
2018-11-04T17:47:40.990Z,96.60
2018-11-04T17:50:15.599Z,96.70
2018-11-04T17:52:49.782Z,96.80
2018-11-04T17:55:18.035Z,96.90
2018-11-04T17:57:46.460Z,97.00
2018-11-04T18:00:15.872Z,97.10
2018-11-04T18:02:44.296Z,97.10
2018-11-04T18:05:13.236Z,97.20
2018-11-04T18:07:41.916Z,97.20
2018-11-04T18:10:11.097Z,97.30
2018-11-04T18:12:39.390Z,97.30
2018-11-04T18:15:08.057Z,97.20
2018-11-04T18:17:36.326Z,97.20
2018-11-04T18:20:05.239Z,97.20
2018-11-04T18:22:33.523Z,97.30
2018-11-04T18:25:01.787Z,97.30
2018-11-04T18:27:30.094Z,97.30
2018-11-04T18:29:58.451Z,97.30
2018-11-04T18:32:27.417Z,97.20
2018-11-04T18:34:55.700Z,97.30
2018-11-04T18:37:24.494Z,97.20
2018-11-04T18:39:52.792Z,97.20
2018-11-04T18:42:21.145Z,97.20
2018-11-04T18:44:49.449Z,97.20
2018-11-04T18:47:17.735Z,97.20
2018-11-04T18:49:45.959Z,97.20
2018-11-04T18:52:14.293Z,97.30
2018-11-04T18:54:42.504Z,97.40
2018-11-04T18:57:10.768Z,97.40
2018-11-04T18:59:39.040Z,97.40
2018-11-04T19:02:07.300Z,97.50
2018-11-04T19:04:35.769Z,97.50
2018-11-04T19:07:04.020Z,97.40
2018-11-04T19:09:32.292Z,97.50
2018-11-04T19:12:00.532Z,97.50
2018-11-04T19:14:28.914Z,97.50
2018-11-04T19:16:57.204Z,97.50
2018-11-04T19:19:25.454Z,97.50
2018-11-04T19:21:53.921Z,97.50
2018-11-04T19:24:22.200Z,97.50
2018-11-04T19:26:50.459Z,97.50
2018-11-04T19:29:18.732Z,97.50
2018-11-04T19:31:47.116Z,97.60
2018-11-04T19:37:27.357Z,97.70
2018-11-04T19:39:55.615Z,97.60
2018-11-04T19:42:24.407Z,97.50
2018-11-04T19:44:52.874Z,97.40
2018-11-04T19:47:21.246Z,97.40
2018-11-04T19:49:49.609Z,97.50
2018-11-04T19:52:18.026Z,97.50
2018-11-04T19:54:46.401Z,97.50
2018-11-04T19:57:15.451Z,97.50
2018-11-04T19:59:44.629Z,97.50
2018-11-04T20:02:13.023Z,97.60
2018-11-04T20:04:41.395Z,97.60
2018-11-04T20:07:09.778Z,97.60
2018-11-04T20:09:38.135Z,97.60
2018-11-04T20:12:10.695Z,97.60
2018-11-04T20:14:39.049Z,97.60
2018-11-04T20:17:07.389Z,97.60
2018-11-04T20:19:41.697Z,97.70
2018-11-04T20:22:09.926Z,97.70
2018-11-04T20:24:43.674Z,97.70
2018-11-04T20:27:12.268Z,97.70
2018-11-04T20:29:40.524Z,97.80
2018-11-04T20:32:14.453Z,97.80
2018-11-04T20:34:42.751Z,97.80
2018-11-04T20:37:11.315Z,97.90
2018-11-04T20:39:45.058Z,97.90
2018-11-04T20:42:13.436Z,97.90
2018-11-04T20:44:45.623Z,97.90
2018-11-04T20:47:14.812Z,97.90
2018-11-04T20:49:48.589Z,98.20
2018-11-04T20:52:17.652Z,97.90
2018-11-04T20:54:46.063Z,98.00
2018-11-04T20:57:19.668Z,98.00
2018-11-04T20:59:48.016Z,98.00
2018-11-04T21:02:16.640Z,97.90
2018-11-04T21:04:44.756Z,97.80
2018-11-04T21:07:13.153Z,97.90
2018-11-04T21:09:41.606Z,97.80
2018-11-04T21:12:10.009Z,97.80
2018-11-04T21:14:38.427Z,97.90
2018-11-04T21:17:06.924Z,97.90
2018-11-04T21:19:38.289Z,97.90
2018-11-04T21:22:09.433Z,97.90
2018-11-04T21:24:38.060Z,97.90
2018-11-04T21:27:06.532Z,97.90
2018-11-04T21:29:38.161Z,97.90
2018-11-04T21:32:06.650Z,98.00
2018-11-04T21:34:35.239Z,98.00
2018-11-04T21:37:05.029Z,98.10
2018-11-04T21:39:33.481Z,98.10
2018-11-04T21:42:02.119Z,98.10
2018-11-04T21:44:30.650Z,98.10
2018-11-04T21:46:58.974Z,98.10
2018-11-04T21:49:27.429Z,98.20
2018-11-04T21:51:55.774Z,98.10
2018-11-04T21:54:25.163Z,98.20
2018-11-04T21:56:53.436Z,98.20
2018-11-04T21:59:21.768Z,98.20
2018-11-04T22:01:50.200Z,98.30
2018-11-04T22:04:18.815Z,98.30
2018-11-04T22:06:47.430Z,98.30
2018-11-04T22:09:15.904Z,98.40
2018-11-04T22:11:44.156Z,98.40
2018-11-04T22:14:12.585Z,98.50
2018-11-04T22:16:41.143Z,98.50
2018-11-04T22:19:09.560Z,98.50
2018-11-04T22:21:37.905Z,98.60
2018-11-04T22:24:06.292Z,98.70
2018-11-04T22:26:34.791Z,98.60
2018-11-04T22:29:04.346Z,98.70
2018-11-04T22:31:33.735Z,98.60
2018-11-04T22:34:02.078Z,98.50
2018-11-04T22:36:30.526Z,98.50
2018-11-04T22:38:58.848Z,98.80
2018-11-04T22:41:27.281Z,98.60
2018-11-04T22:43:55.648Z,98.70
2018-11-04T22:46:23.982Z,98.70
2018-11-04T22:48:54.674Z,98.70
2018-11-04T22:51:22.997Z,98.80
2018-11-04T22:53:51.642Z,98.80
2018-11-04T22:56:20.014Z,98.80
2018-11-04T22:58:48.265Z,98.80
2018-11-04T23:01:16.536Z,98.80
2018-11-04T23:03:44.795Z,98.90
2018-11-04T23:06:13.166Z,98.80
2018-11-04T23:08:41.427Z,98.80
2018-11-04T23:11:09.727Z,98.80
2018-11-04T23:13:37.975Z,98.80
2018-11-04T23:16:06.284Z,98.70
2018-11-04T23:18:34.627Z,98.80
2018-11-04T23:21:02.832Z,98.80
2018-11-04T23:23:31.166Z,98.60
2018-11-04T23:25:59.503Z,98.80
2018-11-04T23:28:27.739Z,98.80
2018-11-04T23:30:55.964Z,98.80
2018-11-04T23:33:24.195Z,98.80
2018-11-04T23:35:52.436Z,98.90
2018-11-04T23:38:20.693Z,99.10
2018-11-04T23:40:48.983Z,99.00
2018-11-04T23:43:17.244Z,99.00
2018-11-04T23:45:45.467Z,99.10
2018-11-04T23:48:13.831Z,99.10
2018-11-04T23:50:42.097Z,99.10
2018-11-04T23:53:10.320Z,99.10
2018-11-04T23:55:38.566Z,99.10
2018-11-04T23:58:09.542Z,99.10
